City Of Vicksburg — WDC2660 — position and weather

sailwx.info

Track history (hours):
 
Tides and Currents Weather Stations Pressure Air Temp Water Temp Dewpoint Dewpoint Depression Visibility Wind Speed Wind Dir Waves Ship Positions

City Of Vicksburg

Owner: Kirby Inland Marine LP, Houston, TX. More information available from US FCC via Universal Licensing System and Coast Guard Vessel Documentation Center.

Last reported at 2015-May-06 17:07 UTC. Time now 2015-May-07 01:37 UTC.
Position N 29°57' W 090°10'.

Length 320 m.

Type: Towing. MMSI: 366996120.

Date/timePositionNaut miles runAvg speedWind from/ knotsBaromVisibWave heightAir tempDewpointWater temp
2015-May-06 17:07N 29°57' W 090°10'2 4.1
2015-May-06 16:32N 29°55' W 090°08'5 4.7
2015-May-06 15:33N 29°57' W 090°04'4 3.6
2015-May-06 14:28N 29°56' W 089°59'60 1.2
2015-May-04 14:12N 30°12' W 091°06'2 2.2
2015-May-04 13:12N 30°15' W 091°07'5 7.3
2015-May-04 12:33N 30°17' W 091°12'4 4.1
2015-May-04 11:33N 30°20' W 091°08'6 5.8
2015-May-04 10:33N 30°22' W 091°15'0 0.1
2015-May-04 09:31N 30°22' W 091°15'0 0.0
2015-May-04 08:33N 30°22' W 091°15'0 0.0
2015-May-04 07:33N 30°22' W 091°15'0 0.0
2015-May-04 06:33N 30°22' W 091°15'0 0.0
2015-May-04 05:33N 30°22' W 091°15'0 0.0
2015-May-04 04:33N 30°22' W 091°15'0 0.0
2015-May-04 03:33N 30°22' W 091°15'0 0.0
2015-May-04 02:33N 30°22' W 091°15'0 0.0
2015-May-04 01:33N 30°22' W 091°15'0 0.0
2015-May-04 00:33N 30°22' W 091°15'0 0.0
2015-May-03 23:33N 30°22' W 091°15'0 0.0
2015-May-03 22:30N 30°22' W 091°15'0 0.0
2015-May-03 21:33N 30°22' W 091°15'0 0.0
2015-May-03 20:33N 30°22' W 091°15'0 0.0
2015-May-03 19:32N 30°22' W 091°15'0 0.0
2015-May-03 18:33N 30°22' W 091°15'0 0.0
2015-May-03 17:31N 30°22' W 091°15'0 0.0
2015-May-03 16:32N 30°22' W 091°15'0 0.0
2015-May-03 15:30N 30°22' W 091°15'0 0.0
2015-May-03 14:29N 30°22' W 091°15'0 0.0
2015-May-03 13:34N 30°22' W 091°15'0 0.0
2015-May-03 12:32N 30°22' W 091°15'0 0.0
2015-May-03 11:33N 30°22' W 091°15'0 0.0
2015-May-03 10:17N 30°22' W 091°15'0 0.0
2015-May-03 09:33N 30°22' W 091°15'0 0.0
2015-May-03 08:33N 30°22' W 091°15'0 0.0
2015-May-03 07:33N 30°22' W 091°15'0 0.0
2015-May-03 06:33N 30°22' W 091°15'0 0.0
2015-May-03 05:28N 30°22' W 091°15'0 0.0
2015-May-03 04:33N 30°22' W 091°15'0 0.0
2015-May-03 03:33N 30°22' W 091°15'0 0.0
2015-May-03 02:33N 30°22' W 091°15'0 0.0
2015-May-03 01:33N 30°22' W 091°15'0 0.0
2015-May-03 00:32N 30°22' W 091°15'0 0.0
2015-May-02 23:31N 30°22' W 091°15'0 0.0
2015-May-02 22:33N 30°22' W 091°15'0 0.0
2015-May-02 21:31N 30°22' W 091°14'0 0.0
2015-May-02 20:29N 30°22' W 091°15'0 0.0
2015-May-02 19:33N 30°22' W 091°15'0 0.0
2015-May-02 18:33N 30°22' W 091°15'0 0.0
2015-May-02 17:29N 30°22' W 091°15'0 0.0
2015-May-02 16:33N 30°22' W 091°15'0 0.0
2015-May-02 15:33N 30°22' W 091°15'0 0.0
2015-May-02 02:10N 30°22' W 091°14'0 0.0
2015-May-02 01:29N 30°22' W 091°14'0 0.0
2015-May-01 23:32N 30°22' W 091°14'0 0.0
2015-May-01 12:09N 30°22' W 091°14'0 0.0
2015-May-01 11:07N 30°22' W 091°14'0 0.0
2015-May-01 10:30N 30°22' W 091°15'0 0.0
2015-May-01 09:29N 30°22' W 091°15'0 0.0
2015-May-01 08:21N 30°22' W 091°14'0 0.0
2015-May-01 04:14N 30°22' W 091°14'0 0.0
2015-May-01 03:23N 30°22' W 091°15'0 0.0
2015-Apr-30 12:25N 30°22' W 091°15'0 0.0
2015-Apr-30 11:31N 30°22' W 091°15'0 0.0
2015-Apr-30 10:17N 30°22' W 091°14'0 0.0
2015-Apr-30 09:27N 30°22' W 091°14'0 0.0
2015-Apr-30 08:26N 30°22' W 091°15'0 0.0
2015-Apr-30 07:24N 30°22' W 091°14'0 0.0
2015-Apr-30 06:32N 30°22' W 091°14'0 0.0
2015-Apr-30 04:28N 30°22' W 091°15'0 0.0
2015-Apr-30 03:30N 30°22' W 091°15'6 5.9
2015-Apr-30 02:33N 30°27' W 091°12'4 4.5
2015-Apr-30 01:33N 30°30' W 091°16'4 3.8
2015-Apr-30 00:33N 30°34' W 091°16'8 6.3
2015-Apr-29 23:16N 30°41' W 091°21'  
Track history (hours):
 
Tides and Currents Weather Stations Pressure Air Temp Water Temp Dewpoint Dewpoint Depression Visibility Wind Speed Wind Dir Waves Ship Positions

City Of Vicksburg

Owner: Kirby Inland Marine LP, Houston, TX. More information available from US FCC via Universal Licensing System and Coast Guard Vessel Documentation Center.

Last reported at 2015-May-06 17:07 UTC. Time now 2015-May-07 01:37 UTC.
Position N 29°57' W 090°10'.

Length 320 m.

Type: Towing. MMSI: 366996120.

Date/timePositionNaut miles runAvg speedWind from/ knotsBaromVisibWave heightAir tempDewpointWater temp
2015-May-06 17:07N 29°57' W 090°10'2 4.1
2015-May-06 16:32N 29°55' W 090°08'5 4.7
2015-May-06 15:33N 29°57' W 090°04'4 3.6
2015-May-06 14:28N 29°56' W 089°59'60 1.2
2015-May-04 14:12N 30°12' W 091°06'2 2.2
2015-May-04 13:12N 30°15' W 091°07'5 7.3
2015-May-04 12:33N 30°17' W 091°12'4 4.1
2015-May-04 11:33N 30°20' W 091°08'6 5.8
2015-May-04 10:33N 30°22' W 091°15'0 0.1
2015-May-04 09:31N 30°22' W 091°15'0 0.0
2015-May-04 08:33N 30°22' W 091°15'0 0.0
2015-May-04 07:33N 30°22' W 091°15'0 0.0
2015-May-04 06:33N 30°22' W 091°15'0 0.0
2015-May-04 05:33N 30°22' W 091°15'0 0.0
2015-May-04 04:33N 30°22' W 091°15'0 0.0
2015-May-04 03:33N 30°22' W 091°15'0 0.0
2015-May-04 02:33N 30°22' W 091°15'0 0.0
2015-May-04 01:33N 30°22' W 091°15'0 0.0
2015-May-04 00:33N 30°22' W 091°15'0 0.0
2015-May-03 23:33N 30°22' W 091°15'0 0.0
2015-May-03 22:30N 30°22' W 091°15'0 0.0
2015-May-03 21:33N 30°22' W 091°15'0 0.0
2015-May-03 20:33N 30°22' W 091°15'0 0.0
2015-May-03 19:32N 30°22' W 091°15'0 0.0
2015-May-03 18:33N 30°22' W 091°15'0 0.0
2015-May-03 17:31N 30°22' W 091°15'0 0.0
2015-May-03 16:32N 30°22' W 091°15'0 0.0
2015-May-03 15:30N 30°22' W 091°15'0 0.0
2015-May-03 14:29N 30°22' W 091°15'0 0.0
2015-May-03 13:34N 30°22' W 091°15'0 0.0
2015-May-03 12:32N 30°22' W 091°15'0 0.0
2015-May-03 11:33N 30°22' W 091°15'0 0.0
2015-May-03 10:17N 30°22' W 091°15'0 0.0
2015-May-03 09:33N 30°22' W 091°15'0 0.0
2015-May-03 08:33N 30°22' W 091°15'0 0.0
2015-May-03 07:33N 30°22' W 091°15'0 0.0
2015-May-03 06:33N 30°22' W 091°15'0 0.0
2015-May-03 05:28N 30°22' W 091°15'0 0.0
2015-May-03 04:33N 30°22' W 091°15'0 0.0
2015-May-03 03:33N 30°22' W 091°15'0 0.0
2015-May-03 02:33N 30°22' W 091°15'0 0.0
2015-May-03 01:33N 30°22' W 091°15'0 0.0
2015-May-03 00:32N 30°22' W 091°15'0 0.0
2015-May-02 23:31N 30°22' W 091°15'0 0.0
2015-May-02 22:33N 30°22' W 091°15'0 0.0
2015-May-02 21:31N 30°22' W 091°14'0 0.0
2015-May-02 20:29N 30°22' W 091°15'0 0.0
2015-May-02 19:33N 30°22' W 091°15'0 0.0
2015-May-02 18:33N 30°22' W 091°15'0 0.0
2015-May-02 17:29N 30°22' W 091°15'0 0.0
2015-May-02 16:33N 30°22' W 091°15'0 0.0
2015-May-02 15:33N 30°22' W 091°15'0 0.0
2015-May-02 02:10N 30°22' W 091°14'0 0.0
2015-May-02 01:29N 30°22' W 091°14'0 0.0
2015-May-01 23:32N 30°22' W 091°14'0 0.0
2015-May-01 12:09N 30°22' W 091°14'0 0.0
2015-May-01 11:07N 30°22' W 091°14'0 0.0
2015-May-01 10:30N 30°22' W 091°15'0 0.0
2015-May-01 09:29N 30°22' W 091°15'0 0.0
2015-May-01 08:21N 30°22' W 091°14'0 0.0
2015-May-01 04:14N 30°22' W 091°14'0 0.0
2015-May-01 03:23N 30°22' W 091°15'0 0.0
2015-Apr-30 12:25N 30°22' W 091°15'0 0.0
2015-Apr-30 11:31N 30°22' W 091°15'0 0.0
2015-Apr-30 10:17N 30°22' W 091°14'0 0.0
2015-Apr-30 09:27N 30°22' W 091°14'0 0.0
2015-Apr-30 08:26N 30°22' W 091°15'0 0.0
2015-Apr-30 07:24N 30°22' W 091°14'0 0.0
2015-Apr-30 06:32N 30°22' W 091°14'0 0.0
2015-Apr-30 04:28N 30°22' W 091°15'0 0.0
2015-Apr-30 03:30N 30°22' W 091°15'6 5.9
2015-Apr-30 02:33N 30°27' W 091°12'4 4.5
2015-Apr-30 01:33N 30°30' W 091°16'4 3.8
2015-Apr-30 00:33N 30°34' W 091°16'8 6.3
2015-Apr-29 23:16N 30°41' W 091°21'  

Dump ship's entire track history